createdAt,value
2019-02-07T00:01:27.340Z,101255.79
2019-02-07T00:04:00.062Z,101247.98
2019-02-07T00:06:49.609Z,101244.49
2019-02-07T00:09:12.928Z,101234.64
2019-02-07T00:11:45.195Z,101235.81
2019-02-07T00:14:15.568Z,101230.66
2019-02-07T00:16:49.221Z,101220.49
2019-02-07T00:19:23.627Z,101220.07
2019-02-07T00:21:57.907Z,101218.73
2019-02-07T00:24:31.007Z,101211.70
2019-02-07T00:27:01.307Z,101212.52
2019-02-07T00:29:33.265Z,101207.72
2019-02-07T00:32:03.695Z,101204.72
2019-02-07T00:34:36.775Z,101193.88
2019-02-07T00:37:12.244Z,101190.00
2019-02-07T00:39:56.579Z,101175.46
2019-02-07T00:42:27.348Z,101166.67
2019-02-07T00:44:59.675Z,101161.14
2019-02-07T00:47:32.001Z,101163.89
2019-02-07T00:50:06.043Z,101147.70
2019-02-07T00:52:42.431Z,101154.25
2019-02-07T00:55:20.045Z,101125.58
2019-02-07T00:57:57.181Z,101125.58
2019-02-07T01:00:27.764Z,101132.63
2019-02-07T01:02:58.374Z,101118.80
2019-02-07T01:05:29.147Z,101116.16
2019-02-07T01:07:59.945Z,101115.97
2019-02-07T01:10:37.594Z,101109.62
2019-02-07T01:16:45.258Z,101094.84
2019-02-07T01:18:22.930Z,101078.70
2019-02-07T01:20:53.522Z,101078.70
2019-02-07T01:23:30.731Z,101074.50
2019-02-07T01:26:02.991Z,101071.86
2019-02-07T01:28:40.983Z,101067.98
2019-02-07T01:31:14.949Z,101063.57
2019-02-07T01:33:45.537Z,101057.08
2019-02-07T01:36:16.114Z,101062.05
2019-02-07T01:38:47.021Z,101063.25
2019-02-07T01:41:19.493Z,101050.84
2019-02-07T01:43:57.182Z,101041.95
2019-02-07T01:46:34.455Z,101030.55
2019-02-07T01:49:16.470Z,101041.01
2019-02-07T01:52:52.203Z,101030.86
2019-02-07T01:54:37.447Z,101040.13
2019-02-07T01:57:08.002Z,101024.52
2019-02-07T01:59:38.275Z,101028.70
2019-02-07T02:02:10.457Z,101021.02
2019-02-07T02:04:45.912Z,101015.95
2019-02-07T02:07:22.119Z,101016.41
2019-02-07T02:09:57.122Z,101013.03
2019-02-07T02:12:57.534Z,101003.27
2019-02-07T02:15:46.529Z,101003.55
2019-02-07T02:18:20.301Z,100992.45
2019-02-07T02:20:52.183Z,100987.87
2019-02-07T02:23:29.071Z,100977.61
2019-02-07T02:26:05.820Z,100975.95
2019-02-07T02:28:42.794Z,100974.23
2019-02-07T02:31:12.936Z,100971.20
2019-02-07T02:33:43.648Z,100959.47
2019-02-07T02:36:14.038Z,100954.78
2019-02-07T02:38:49.015Z,100957.25
2019-02-07T02:41:35.874Z,100949.47
2019-02-07T02:44:12.190Z,100938.37
2019-02-07T02:46:56.303Z,100931.05
2019-02-07T02:49:49.327Z,100924.70
2019-02-07T02:52:08.053Z,100901.56
2019-02-07T02:54:48.666Z,100901.56
2019-02-07T02:57:24.659Z,100902.02
2019-02-07T02:59:54.932Z,100891.88
2019-02-07T03:02:50.436Z,100887.12
2019-02-07T03:05:46.884Z,100884.41
2019-02-07T03:08:26.439Z,100874.58
2019-02-07T03:11:10.616Z,100882.47
2019-02-07T03:14:15.260Z,100865.95
2019-02-07T03:17:01.404Z,100863.77
2019-02-07T03:19:47.239Z,100873.14
2019-02-07T03:22:46.263Z,100868.06
2019-02-07T03:25:45.857Z,100866.97
2019-02-07T03:28:47.947Z,100860.70
2019-02-07T03:31:49.395Z,100853.03
2019-02-07T03:34:43.369Z,100849.30
2019-02-07T03:37:31.481Z,100825.42
2019-02-07T03:40:26.668Z,100824.04
2019-02-07T03:43:26.934Z,100820.41
2019-02-07T03:46:20.033Z,100821.42
2019-02-07T03:49:21.383Z,100813.92
2019-02-07T03:52:16.360Z,100814.09
2019-02-07T03:55:14.689Z,100803.84
2019-02-07T03:58:14.256Z,100803.84
2019-02-07T04:01:09.671Z,100796.34
2019-02-07T04:03:59.840Z,100790.63
2019-02-07T04:06:55.756Z,100792.28
2019-02-07T04:09:46.237Z,100777.48
2019-02-07T04:12:47.506Z,100777.16
2019-02-07T04:15:39.899Z,100779.37
2019-02-07T04:18:31.493Z,100768.52
2019-02-07T04:21:17.646Z,100768.23
2019-02-07T04:24:18.549Z,100760.30
2019-02-07T04:27:08.955Z,100765.14
2019-02-07T04:29:46.930Z,100754.12
2019-02-07T04:32:28.992Z,100746.28
2019-02-07T04:35:14.173Z,100742.48
2019-02-07T04:38:12.608Z,100746.84
2019-02-07T04:41:16.717Z,100736.27
2019-02-07T04:44:08.979Z,100733.73
2019-02-07T04:47:19.688Z,100730.41
2019-02-07T04:50:08.057Z,100722.02
2019-02-07T04:52:59.235Z,100721.08
2019-02-07T04:56:00.896Z,100718.05
2019-02-07T04:58:52.024Z,100715.99
2019-02-07T05:01:45.577Z,100712.80
2019-02-07T05:04:37.652Z,100706.16
2019-02-07T05:07:28.948Z,100692.19
2019-02-07T05:10:21.056Z,100687.33
2019-02-07T05:13:17.841Z,100679.42
2019-02-07T05:16:05.605Z,100674.56
2019-02-07T05:19:02.272Z,100669.25
2019-02-07T05:22:00.541Z,100660.75
2019-02-07T05:24:55.620Z,100650.52
2019-02-07T05:27:46.407Z,100658.03
2019-02-07T05:30:37.105Z,100656.22
2019-02-07T05:33:33.803Z,100652.10
2019-02-07T05:36:22.145Z,100647.75
2019-02-07T05:39:12.642Z,100643.87
2019-02-07T05:41:56.449Z,100638.08
2019-02-07T05:44:54.678Z,100633.27
2019-02-07T05:47:42.677Z,100629.41
2019-02-07T05:50:35.095Z,100604.38
2019-02-07T05:53:25.175Z,100608.73
2019-02-07T05:56:12.746Z,100600.84
2019-02-07T05:59:03.269Z,100592.25
2019-02-07T06:01:50.905Z,100588.98
2019-02-07T06:04:40.986Z,100581.59
2019-02-07T06:07:41.436Z,100582.47
2019-02-07T06:10:41.059Z,100573.30
2019-02-07T06:13:30.983Z,100573.88
2019-02-07T06:16:21.564Z,100574.36
2019-02-07T06:19:25.398Z,100565.75
2019-02-07T06:22:23.988Z,100567.81
2019-02-07T06:25:28.354Z,100562.53
2019-02-07T06:28:41.899Z,100553.44
2019-02-07T06:31:32.264Z,100557.08
2019-02-07T06:34:29.229Z,100551.94
2019-02-07T06:37:18.326Z,100551.94
2019-02-07T06:40:08.410Z,100554.88
2019-02-07T06:42:58.437Z,100546.03
2019-02-07T06:45:53.553Z,100558.30
2019-02-07T06:48:52.286Z,100552.73
2019-02-07T06:52:16.069Z,100557.56
2019-02-07T06:54:34.578Z,100555.06
2019-02-07T06:57:31.639Z,100558.60
2019-02-07T07:00:38.714Z,100557.88
2019-02-07T07:03:57.743Z,100554.03
2019-02-07T07:06:53.229Z,100546.46
2019-02-07T07:09:42.652Z,100559.02
2019-02-07T07:12:34.894Z,100547.53
2019-02-07T07:15:25.649Z,100550.08
2019-02-07T07:18:24.437Z,100545.92
2019-02-07T07:21:19.743Z,100554.81
2019-02-07T07:24:24.250Z,100544.66
2019-02-07T07:27:23.663Z,100560.38
2019-02-07T07:30:03.860Z,100548.55
2019-02-07T07:32:59.021Z,100538.45
2019-02-07T07:35:58.208Z,100542.39
2019-02-07T07:38:49.465Z,100534.12
2019-02-07T07:41:56.907Z,100534.72
2019-02-07T07:44:49.518Z,100537.05
2019-02-07T07:48:00.025Z,100546.91
2019-02-07T07:50:47.964Z,100543.64
2019-02-07T07:53:40.891Z,100538.83
2019-02-07T07:56:34.403Z,100538.83
2019-02-07T07:59:14.966Z,100542.09
2019-02-07T08:02:03.175Z,100541.84
2019-02-07T08:04:44.822Z,100547.52
2019-02-07T08:07:36.825Z,100555.63
2019-02-07T08:10:21.197Z,100553.22
2019-02-07T08:13:09.931Z,100559.31
2019-02-07T08:15:58.143Z,100565.33
2019-02-07T08:18:53.439Z,100573.50
2019-02-07T08:21:43.039Z,100573.15
2019-02-07T08:24:35.544Z,100565.61
2019-02-07T08:27:29.080Z,100583.46
2019-02-07T08:30:22.651Z,100591.09
2019-02-07T08:33:14.986Z,100581.88
2019-02-07T08:36:10.826Z,100580.44
2019-02-07T08:39:16.644Z,100583.97
2019-02-07T08:42:30.622Z,100583.97
2019-02-07T08:45:01.799Z,100592.27
2019-02-07T08:47:58.334Z,100601.84
2019-02-07T08:51:02.779Z,100603.17
2019-02-07T08:53:55.142Z,100598.47
2019-02-07T08:56:47.451Z,100612.52
2019-02-07T08:59:45.504Z,100610.84
2019-02-07T09:02:51.331Z,100612.16
2019-02-07T09:05:24.243Z,100610.27
2019-02-07T09:08:15.765Z,100625.02
2019-02-07T09:11:07.805Z,100617.94
2019-02-07T09:14:14.975Z,100610.37
2019-02-07T09:17:14.457Z,100603.69
2019-02-07T09:20:05.619Z,100612.79
2019-02-07T09:23:02.335Z,100609.77
2019-02-07T09:26:09.009Z,100613.73
2019-02-07T09:29:10.182Z,100613.73
2019-02-07T09:32:11.322Z,100620.62
2019-02-07T09:34:57.430Z,100621.28
2019-02-07T09:37:57.162Z,100626.55
2019-02-07T09:40:47.660Z,100620.89
2019-02-07T09:43:39.763Z,100621.90
2019-02-07T09:46:27.726Z,100633.81
2019-02-07T09:49:28.464Z,100633.08
2019-02-07T09:52:24.615Z,100634.89
2019-02-07T09:55:20.417Z,100635.16
2019-02-07T09:58:10.125Z,100641.25
2019-02-07T10:01:00.298Z,100632.71
2019-02-07T10:04:05.966Z,100633.17
2019-02-07T10:07:06.757Z,100620.91
2019-02-07T10:09:55.130Z,100635.95
2019-02-07T10:12:42.837Z,100634.61
2019-02-07T10:15:38.437Z,100648.97
2019-02-07T10:18:37.112Z,100647.14
2019-02-07T10:21:17.183Z,100646.47
2019-02-07T10:24:08.031Z,100657.70
2019-02-07T10:27:05.584Z,100653.85
2019-02-07T10:29:57.674Z,100662.41
2019-02-07T10:32:59.041Z,100660.36
2019-02-07T10:35:47.085Z,100662.60
2019-02-07T10:38:40.724Z,100662.60
2019-02-07T10:41:26.108Z,100671.09
2019-02-07T10:44:13.017Z,100652.86
2019-02-07T10:47:06.063Z,100666.35
2019-02-07T10:49:58.687Z,100662.56
2019-02-07T10:52:42.839Z,100663.51
2019-02-07T10:55:30.767Z,100663.51
2019-02-07T10:58:19.278Z,100663.02
2019-02-07T11:01:19.181Z,100665.55
2019-02-07T11:04:26.179Z,100660.16
2019-02-07T11:07:32.801Z,100668.25
2019-02-07T11:10:15.726Z,100650.84
2019-02-07T11:13:15.525Z,100646.55
2019-02-07T11:16:23.759Z,100639.22
2019-02-07T11:19:21.493Z,100645.17
2019-02-07T11:22:12.846Z,100643.84
2019-02-07T11:25:21.428Z,100643.84
2019-02-07T11:28:12.549Z,100648.77
2019-02-07T11:30:54.525Z,100646.53
2019-02-07T11:33:43.162Z,100653.11
2019-02-07T11:36:32.567Z,100649.04
2019-02-07T11:39:19.137Z,100647.55
2019-02-07T11:42:14.356Z,100651.66
2019-02-07T11:45:10.396Z,100654.06
2019-02-07T11:47:57.996Z,100645.01
2019-02-07T11:50:47.283Z,100645.39
2019-02-07T11:53:42.455Z,100646.47
2019-02-07T11:56:30.946Z,100635.86
2019-02-07T11:59:38.858Z,100649.58
2019-02-07T12:02:28.480Z,100637.23
2019-02-07T12:05:36.155Z,100631.13
2019-02-07T12:08:26.517Z,100634.50
2019-02-07T12:11:21.091Z,100618.62
2019-02-07T12:17:04.061Z,100614.33
2019-02-07T12:20:08.712Z,100607.82
2019-02-07T12:23:02.258Z,100600.82
2019-02-07T12:25:55.881Z,100614.30
2019-02-07T12:28:44.497Z,100612.53
2019-02-07T12:31:38.195Z,100611.73
2019-02-07T12:34:18.279Z,100606.66
2019-02-07T12:37:09.378Z,100618.29
2019-02-07T12:39:58.747Z,100623.44
2019-02-07T12:42:47.885Z,100603.78
2019-02-07T12:45:49.238Z,100611.08
2019-02-07T12:48:51.097Z,100609.92
2019-02-07T12:51:43.323Z,100614.45
2019-02-07T12:54:33.021Z,100613.11
2019-02-07T12:57:20.435Z,100610.79
2019-02-07T13:00:10.088Z,100602.84
2019-02-07T13:02:59.131Z,100597.70
2019-02-07T13:05:50.734Z,100597.39
2019-02-07T13:08:44.899Z,100597.39
2019-02-07T13:11:38.385Z,100605.09
2019-02-07T13:14:33.090Z,100590.61
2019-02-07T13:17:19.513Z,100597.02
2019-02-07T13:19:59.017Z,100592.11
2019-02-07T13:22:55.844Z,100603.39
2019-02-07T13:25:44.703Z,100585.38
2019-02-07T13:28:33.145Z,100609.20
2019-02-07T13:31:32.569Z,100589.21
2019-02-07T13:34:30.732Z,100594.53
2019-02-07T13:37:35.516Z,100586.63
2019-02-07T13:40:26.661Z,100594.09
2019-02-07T13:43:31.982Z,100590.10
2019-02-07T13:46:31.324Z,100594.10
2019-02-07T13:49:25.048Z,100596.20
2019-02-07T13:52:17.206Z,100592.72
2019-02-07T13:55:11.279Z,100595.92
2019-02-07T13:58:01.863Z,100602.81
2019-02-07T14:00:40.455Z,100600.42
2019-02-07T14:03:25.304Z,100593.04
2019-02-07T14:06:23.911Z,100601.48
2019-02-07T14:09:13.643Z,100591.87
2019-02-07T14:11:52.552Z,100575.75
2019-02-07T14:14:44.770Z,100586.10
2019-02-07T14:17:26.720Z,100599.39
2019-02-07T14:20:14.534Z,100600.27
2019-02-07T14:23:03.101Z,100599.80
2019-02-07T14:26:08.188Z,100609.29
2019-02-07T14:29:02.002Z,100597.62
2019-02-07T14:32:12.595Z,100612.86
2019-02-07T14:34:54.266Z,100618.61
2019-02-07T14:37:48.553Z,100623.28
2019-02-07T14:40:29.233Z,100624.01
2019-02-07T14:43:38.086Z,100630.53
2019-02-07T14:46:20.761Z,100634.45
2019-02-07T14:48:51.161Z,100636.80
2019-02-07T14:51:26.998Z,100635.34
2019-02-07T14:54:01.987Z,100640.29
2019-02-07T14:56:34.102Z,100636.87
2019-02-07T14:59:04.789Z,100642.06
2019-02-07T15:01:36.233Z,100658.25
2019-02-07T15:04:09.908Z,100641.19
2019-02-07T15:06:44.899Z,100647.19
2019-02-07T15:09:18.377Z,100642.17
2019-02-07T15:11:51.080Z,100650.53
2019-02-07T15:14:25.182Z,100652.42
2019-02-07T15:16:56.050Z,100646.37
2019-02-07T15:19:26.622Z,100644.13
2019-02-07T15:21:57.266Z,100649.35
2019-02-07T15:24:28.051Z,100639.83
2019-02-07T15:27:02.801Z,100639.33
2019-02-07T15:29:34.516Z,100642.30
2019-02-07T15:32:06.624Z,100644.77
2019-02-07T15:34:37.022Z,100631.06
2019-02-07T15:37:07.728Z,100637.88
2019-02-07T15:39:40.771Z,100634.00
2019-02-07T15:42:11.102Z,100631.01
2019-02-07T15:44:41.516Z,100632.84
2019-02-07T15:47:12.960Z,100631.29
2019-02-07T15:49:43.308Z,100643.46
2019-02-07T15:52:14.691Z,100634.98
2019-02-07T15:54:45.173Z,100633.84
2019-02-07T15:57:15.894Z,100641.66
2019-02-07T16:00:03.890Z,100645.29
2019-02-07T16:02:42.800Z,100655.25
2019-02-07T16:05:14.220Z,100687.31
2019-02-07T16:07:44.843Z,100704.78
2019-02-07T16:10:17.353Z,100701.33
2019-02-07T16:12:54.640Z,100697.48
2019-02-07T16:15:28.628Z,100697.48
2019-02-07T16:17:59.113Z,100698.40
2019-02-07T16:20:30.224Z,100679.35
2019-02-07T16:23:01.535Z,100682.81
2019-02-07T16:25:32.414Z,100677.55
2019-02-07T16:28:10.942Z,100678.92
2019-02-07T16:30:40.165Z,100681.59
2019-02-07T16:33:13.820Z,100677.44
2019-02-07T16:35:44.459Z,100682.21
2019-02-07T16:38:15.238Z,100687.95
2019-02-07T16:40:45.553Z,100694.98
2019-02-07T16:43:18.415Z,100701.36
2019-02-07T16:45:48.700Z,100705.51
2019-02-07T16:48:19.331Z,100702.97
2019-02-07T16:50:59.620Z,100702.77
2019-02-07T16:53:22.065Z,100710.69
2019-02-07T16:55:55.067Z,100710.26
2019-02-07T16:58:25.833Z,100705.80
2019-02-07T17:00:57.472Z,100721.99
2019-02-07T17:03:28.060Z,100714.59
2019-02-07T17:06:21.939Z,100713.61
2019-02-07T17:08:52.448Z,100715.73
2019-02-07T17:11:22.783Z,100725.92
2019-02-07T17:13:55.456Z,100721.70
2019-02-07T17:16:25.803Z,100729.70
2019-02-07T17:18:56.203Z,100729.70
2019-02-07T17:21:34.960Z,100737.91
2019-02-07T17:24:05.678Z,100740.47
2019-02-07T17:26:37.516Z,100744.27
2019-02-07T17:29:09.773Z,100752.64
2019-02-07T17:31:40.416Z,100754.00
2019-02-07T17:34:11.582Z,100758.13
2019-02-07T17:36:43.353Z,100758.06
2019-02-07T17:39:16.962Z,100771.81
2019-02-07T17:41:49.058Z,100769.85
2019-02-07T17:44:21.848Z,100768.44
2019-02-07T17:46:52.688Z,100778.77
2019-02-07T17:49:25.427Z,100780.92
2019-02-07T17:52:15.929Z,100782.09
2019-02-07T17:54:49.927Z,100791.12
2019-02-07T17:57:28.117Z,100799.70
2019-02-07T18:00:13.221Z,100797.38
2019-02-07T18:02:55.980Z,100812.44
2019-02-07T18:05:40.439Z,100802.47
2019-02-07T18:08:12.180Z,100803.78
2019-02-07T18:10:44.682Z,100802.84
2019-02-07T18:13:15.788Z,100808.30
2019-02-07T18:15:53.426Z,100815.95
2019-02-07T18:18:24.280Z,100815.95
2019-02-07T18:20:56.553Z,100820.41
2019-02-07T18:23:26.881Z,100822.56
2019-02-07T18:25:57.391Z,100825.76
2019-02-07T18:28:30.656Z,100829.49
2019-02-07T18:31:07.196Z,100833.97
2019-02-07T18:33:41.322Z,100833.28
2019-02-07T18:36:12.040Z,100835.97
2019-02-07T18:38:42.440Z,100844.03
2019-02-07T18:41:16.936Z,100844.63
2019-02-07T18:43:49.581Z,100857.23
2019-02-07T18:46:24.188Z,100861.20
2019-02-07T18:48:54.599Z,100859.59
2019-02-07T18:51:25.258Z,100863.30
2019-02-07T18:54:00.280Z,100858.51
2019-02-07T18:56:32.174Z,100859.69
2019-02-07T18:59:06.508Z,100867.19
2019-02-07T19:01:42.789Z,100863.95
2019-02-07T19:04:13.284Z,100860.09
2019-02-07T19:06:45.524Z,100867.25
2019-02-07T19:09:20.150Z,100870.92
2019-02-07T19:11:55.773Z,100869.25
2019-02-07T19:14:23.339Z,100872.09
2019-02-07T19:16:56.206Z,100876.25
2019-02-07T19:19:29.252Z,100873.12
2019-02-07T19:21:59.620Z,100880.31
2019-02-07T19:24:30.406Z,100876.83
2019-02-07T19:27:06.034Z,100882.31
2019-02-07T19:29:36.421Z,100884.44
2019-02-07T19:32:06.917Z,100882.81
2019-02-07T19:34:39.041Z,100885.11
2019-02-07T19:37:09.898Z,100903.11
2019-02-07T19:39:49.169Z,100903.86
2019-02-07T19:42:18.427Z,100898.88
2019-02-07T19:44:57.809Z,100898.63
2019-02-07T19:47:28.343Z,100901.36
2019-02-07T19:50:00.360Z,100896.27
2019-02-07T19:52:30.915Z,100903.11
2019-02-07T19:55:04.261Z,100899.15
2019-02-07T19:57:36.118Z,100900.23
2019-02-07T20:00:10.011Z,100903.36
2019-02-07T20:02:40.418Z,100898.39
2019-02-07T20:05:11.926Z,100904.76
2019-02-07T20:07:45.355Z,100912.97
2019-02-07T20:10:25.891Z,100914.70
2019-02-07T20:12:53.725Z,100915.28
2019-02-07T20:15:35.948Z,100919.58
2019-02-07T20:18:08.097Z,100918.53
2019-02-07T20:20:39.667Z,100916.23
2019-02-07T20:23:11.731Z,100929.81
2019-02-07T20:25:43.574Z,100924.11
2019-02-07T20:28:14.173Z,100925.01
2019-02-07T20:33:26.123Z,100934.22
2019-02-07T20:35:53.729Z,100938.32
2019-02-07T20:38:24.605Z,100935.16
2019-02-07T20:42:07.091Z,100944.85
2019-02-07T20:43:31.066Z,100941.52
2019-02-07T20:46:01.470Z,100945.00
2019-02-07T20:48:36.574Z,100948.03
2019-02-07T20:51:07.246Z,100948.67
2019-02-07T20:53:37.971Z,100945.19
2019-02-07T20:56:08.930Z,100950.52
2019-02-07T20:58:39.653Z,100950.52
2019-02-07T21:01:14.833Z,100958.25
2019-02-07T21:03:52.040Z,100960.95
2019-02-07T21:06:25.839Z,100969.19
2019-02-07T21:08:56.232Z,100974.04
2019-02-07T21:11:26.813Z,100972.37
2019-02-07T21:13:57.831Z,100973.06
2019-02-07T21:16:28.315Z,100965.72
2019-02-07T21:18:58.921Z,100980.72
2019-02-07T21:21:30.097Z,100978.17
2019-02-07T21:24:23.281Z,100983.41
2019-02-07T21:26:47.305Z,100979.44
2019-02-07T21:29:14.832Z,100990.22
2019-02-07T21:31:48.111Z,100993.26
2019-02-07T21:34:18.499Z,100990.62
2019-02-07T21:36:50.737Z,100993.70
2019-02-07T21:39:21.451Z,100993.70
2019-02-07T21:41:52.192Z,100995.47
2019-02-07T21:44:23.660Z,101005.40
2019-02-07T21:46:55.909Z,101005.40
2019-02-07T21:49:42.503Z,101008.13
2019-02-07T21:51:58.772Z,101006.37
2019-02-07T21:54:29.390Z,101012.74
2019-02-07T21:57:13.019Z,101022.88
2019-02-07T21:59:36.800Z,101016.75
2019-02-07T22:02:14.121Z,101019.93
2019-02-07T22:04:46.035Z,101023.23
2019-02-07T22:07:17.484Z,101025.29
2019-02-07T22:09:51.208Z,101032.93
2019-02-07T22:12:22.143Z,101031.02
2019-02-07T22:14:58.342Z,101029.50
2019-02-07T22:17:28.052Z,101035.59
2019-02-07T22:19:58.520Z,101044.24
2019-02-07T22:22:32.822Z,101044.09
2019-02-07T22:25:04.728Z,101044.09
2019-02-07T22:27:41.622Z,101057.28
2019-02-07T22:30:14.125Z,101048.22
2019-02-07T22:32:44.986Z,101062.83
2019-02-07T22:35:15.823Z,101058.28
2019-02-07T22:37:46.208Z,101062.58
2019-02-07T22:40:19.382Z,101064.41
2019-02-07T22:42:51.975Z,101061.45
2019-02-07T22:45:24.795Z,101064.20
2019-02-07T22:48:08.663Z,101065.53
2019-02-07T22:50:49.690Z,101067.20
2019-02-07T22:53:16.869Z,101072.77
2019-02-07T22:55:47.532Z,101067.28
2019-02-07T22:58:17.799Z,101073.32
2019-02-07T23:01:32.336Z,101067.83
2019-02-07T23:04:08.006Z,101074.20
2019-02-07T23:06:38.295Z,101067.64
2019-02-07T23:09:14.697Z,101073.62
2019-02-07T23:11:50.283Z,101071.86
2019-02-07T23:14:21.012Z,101074.89
2019-02-07T23:16:55.642Z,101076.62
2019-02-07T23:19:27.398Z,101077.50
2019-02-07T23:21:59.268Z,101078.72
2019-02-07T23:24:29.704Z,101077.29
2019-02-07T23:27:00.187Z,101079.69
2019-02-07T23:29:30.759Z,101082.57
2019-02-07T23:32:04.098Z,101078.20
2019-02-07T23:34:34.672Z,101088.79
2019-02-07T23:37:05.413Z,101078.91
2019-02-07T23:39:39.793Z,101078.48
2019-02-07T23:42:11.848Z,101080.56
2019-02-07T23:44:42.553Z,101082.16
2019-02-07T23:47:12.861Z,101077.08
2019-02-07T23:49:43.493Z,101087.55
2019-02-07T23:52:14.126Z,101080.87
2019-02-07T23:54:50.154Z,101086.12
2019-02-07T23:57:16.469Z,101086.27
2019-02-07T23:59:47.142Z,101081.94
